sensor_id;sensor_type;location;lat;lon;timestamp;P1;durP1;ratioP1;P2;durP2;ratioP2
20559;SDS011;10438;51.454;6.718;2023-03-31T00:00:24;11.37;;;2.43;;
20559;SDS011;10438;51.454;6.718;2023-03-31T00:02:50;9.07;;;1.93;;
20559;SDS011;10438;51.454;6.718;2023-03-31T00:05:18;7.97;;;2.03;;
20559;SDS011;10438;51.454;6.718;2023-03-31T00:07:45;5.30;;;1.73;;
20559;SDS011;10438;51.454;6.718;2023-03-31T00:10:12;8.47;;;1.93;;
20559;SDS011;10438;51.454;6.718;2023-03-31T00:12:39;10.03;;;1.90;;
20559;SDS011;10438;51.454;6.718;2023-03-31T00:15:05;11.47;;;2.40;;
20559;SDS011;10438;51.454;6.718;2023-03-31T00:17:31;9.03;;;1.60;;
20559;SDS011;10438;51.454;6.718;2023-03-31T00:19:59;12.30;;;3.07;;
20559;SDS011;10438;51.454;6.718;2023-03-31T00:22:34;8.93;;;2.03;;
20559;SDS011;10438;51.454;6.718;2023-03-31T00:25:02;7.53;;;2.43;;
20559;SDS011;10438;51.454;6.718;2023-03-31T00:27:28;9.50;;;2.53;;
20559;SDS011;10438;51.454;6.718;2023-03-31T00:29:54;9.03;;;1.90;;
20559;SDS011;10438;51.454;6.718;2023-03-31T00:32:19;11.17;;;1.90;;
20559;SDS011;10438;51.454;6.718;2023-03-31T00:34:45;6.87;;;1.60;;
20559;SDS011;10438;51.454;6.718;2023-03-31T00:37:10;7.43;;;2.17;;
20559;SDS011;10438;51.454;6.718;2023-03-31T00:39:40;8.90;;;1.90;;
20559;SDS011;10438;51.454;6.718;2023-03-31T00:42:08;8.80;;;2.10;;
20559;SDS011;10438;51.454;6.718;2023-03-31T00:44:38;12.37;;;1.90;;
20559;SDS011;10438;51.454;6.718;2023-03-31T00:47:37;8.90;;;2.17;;
20559;SDS011;10438;51.454;6.718;2023-03-31T00:50:05;7.83;;;1.80;;
20559;SDS011;10438;51.454;6.718;2023-03-31T00:52:42;10.20;;;2.23;;
20559;SDS011;10438;51.454;6.718;2023-03-31T00:55:11;7.53;;;1.50;;
20559;SDS011;10438;51.454;6.718;2023-03-31T00:57:40;9.60;;;2.03;;
20559;SDS011;10438;51.454;6.718;2023-03-31T01:00:10;10.47;;;1.83;;
20559;SDS011;10438;51.454;6.718;2023-03-31T01:02:44;12.93;;;2.70;;
20559;SDS011;10438;51.454;6.718;2023-03-31T01:05:20;11.50;;;2.40;;
20559;SDS011;10438;51.454;6.718;2023-03-31T01:07:50;10.77;;;2.67;;
20559;SDS011;10438;51.454;6.718;2023-03-31T01:10:17;10.77;;;2.20;;
20559;SDS011;10438;51.454;6.718;2023-03-31T01:12:45;12.67;;;2.63;;
20559;SDS011;10438;51.454;6.718;2023-03-31T01:15:12;20.40;;;3.30;;
20559;SDS011;10438;51.454;6.718;2023-03-31T01:17:38;15.73;;;2.53;;
20559;SDS011;10438;51.454;6.718;2023-03-31T01:28:46;10.13;;;2.63;;
20559;SDS011;10438;51.454;6.718;2023-03-31T01:34:25;10.60;;;1.87;;
20559;SDS011;10438;51.454;6.718;2023-03-31T01:37:10;14.63;;;2.20;;
20559;SDS011;10438;51.454;6.718;2023-03-31T01:40:09;7.03;;;1.67;;
20559;SDS011;10438;51.454;6.718;2023-03-31T01:45:57;11.07;;;2.20;;
20559;SDS011;10438;51.454;6.718;2023-03-31T01:48:30;11.20;;;2.40;;
20559;SDS011;10438;51.454;6.718;2023-03-31T01:51:28;7.40;;;1.80;;
20559;SDS011;10438;51.454;6.718;2023-03-31T01:57:12;21.80;;;2.80;;
20559;SDS011;10438;51.454;6.718;2023-03-31T01:59:45;13.70;;;2.20;;
20559;SDS011;10438;51.454;6.718;2023-03-31T02:02:24;11.00;;;2.33;;
20559;SDS011;10438;51.454;6.718;2023-03-31T02:04:57;14.90;;;2.67;;
20559;SDS011;10438;51.454;6.718;2023-03-31T02:07:33;19.30;;;2.80;;
20559;SDS011;10438;51.454;6.718;2023-03-31T02:10:06;17.60;;;3.70;;
20559;SDS011;10438;51.454;6.718;2023-03-31T02:12:35;14.00;;;3.83;;
20559;SDS011;10438;51.454;6.718;2023-03-31T02:15:04;15.63;;;3.90;;
20559;SDS011;10438;51.454;6.718;2023-03-31T02:17:34;12.33;;;3.80;;
20559;SDS011;10438;51.454;6.718;2023-03-31T02:20:05;17.27;;;2.60;;
20559;SDS011;10438;51.454;6.718;2023-03-31T02:22:37;10.37;;;2.10;;
20559;SDS011;10438;51.454;6.718;2023-03-31T02:25:05;13.73;;;3.10;;
20559;SDS011;10438;51.454;6.718;2023-03-31T02:27:34;15.87;;;3.80;;
20559;SDS011;10438;51.454;6.718;2023-03-31T02:30:04;13.40;;;3.67;;
20559;SDS011;10438;51.454;6.718;2023-03-31T02:32:32;14.83;;;2.77;;
20559;SDS011;10438;51.454;6.718;2023-03-31T02:35:00;13.10;;;2.80;;
20559;SDS011;10438;51.454;6.718;2023-03-31T02:37:26;10.73;;;2.63;;
20559;SDS011;10438;51.454;6.718;2023-03-31T02:39:53;12.57;;;2.50;;
20559;SDS011;10438;51.454;6.718;2023-03-31T02:42:21;16.07;;;2.60;;
20559;SDS011;10438;51.454;6.718;2023-03-31T02:44:47;13.37;;;2.73;;
20559;SDS011;10438;51.454;6.718;2023-03-31T02:47:13;14.57;;;2.73;;
20559;SDS011;10438;51.454;6.718;2023-03-31T02:49:42;17.63;;;3.10;;
20559;SDS011;10438;51.454;6.718;2023-03-31T02:52:18;15.97;;;2.67;;
20559;SDS011;10438;51.454;6.718;2023-03-31T03:03:31;13.67;;;2.53;;
20559;SDS011;10438;51.454;6.718;2023-03-31T03:06:15;15.03;;;2.57;;
20559;SDS011;10438;51.454;6.718;2023-03-31T03:11:45;20.13;;;3.60;;
20559;SDS011;10438;51.454;6.718;2023-03-31T03:14:34;25.73;;;3.73;;
20559;SDS011;10438;51.454;6.718;2023-03-31T03:17:13;23.40;;;3.50;;
20559;SDS011;10438;51.454;6.718;2023-03-31T03:19:55;20.50;;;3.13;;
20559;SDS011;10438;51.454;6.718;2023-03-31T03:22:24;21.70;;;3.80;;
20559;SDS011;10438;51.454;6.718;2023-03-31T03:24:49;17.23;;;3.60;;
20559;SDS011;10438;51.454;6.718;2023-03-31T03:27:16;27.33;;;4.10;;
20559;SDS011;10438;51.454;6.718;2023-03-31T03:29:42;12.47;;;2.30;;
20559;SDS011;10438;51.454;6.718;2023-03-31T03:32:08;16.00;;;3.47;;
20559;SDS011;10438;51.454;6.718;2023-03-31T03:34:34;18.53;;;2.77;;
20559;SDS011;10438;51.454;6.718;2023-03-31T03:37:00;24.53;;;3.13;;
20559;SDS011;10438;51.454;6.718;2023-03-31T03:39:25;17.67;;;3.07;;
20559;SDS011;10438;51.454;6.718;2023-03-31T03:41:51;18.23;;;3.00;;
20559;SDS011;10438;51.454;6.718;2023-03-31T03:44:16;11.57;;;2.60;;
20559;SDS011;10438;51.454;6.718;2023-03-31T03:46:42;17.43;;;3.00;;
20559;SDS011;10438;51.454;6.718;2023-03-31T03:49:07;17.40;;;3.00;;
20559;SDS011;10438;51.454;6.718;2023-03-31T03:51:33;15.87;;;4.10;;
20559;SDS011;10438;51.454;6.718;2023-03-31T03:53:58;20.27;;;4.23;;
20559;SDS011;10438;51.454;6.718;2023-03-31T03:56:24;24.00;;;5.13;;
20559;SDS011;10438;51.454;6.718;2023-03-31T03:58:50;15.77;;;4.63;;
20559;SDS011;10438;51.454;6.718;2023-03-31T04:01:16;15.10;;;4.03;;
20559;SDS011;10438;51.454;6.718;2023-03-31T04:03:42;21.77;;;4.10;;
20559;SDS011;10438;51.454;6.718;2023-03-31T04:06:08;17.73;;;4.07;;
20559;SDS011;10438;51.454;6.718;2023-03-31T04:08:33;16.57;;;4.43;;
20559;SDS011;10438;51.454;6.718;2023-03-31T04:10:59;15.90;;;3.77;;
20559;SDS011;10438;51.454;6.718;2023-03-31T04:13:25;13.57;;;4.00;;
20559;SDS011;10438;51.454;6.718;2023-03-31T04:15:50;15.17;;;3.80;;
20559;SDS011;10438;51.454;6.718;2023-03-31T04:18:16;18.10;;;4.80;;
20559;SDS011;10438;51.454;6.718;2023-03-31T04:20:51;15.17;;;3.70;;
20559;SDS011;10438;51.454;6.718;2023-03-31T04:23:33;19.53;;;4.93;;
20559;SDS011;10438;51.454;6.718;2023-03-31T04:26:02;20.20;;;4.93;;
20559;SDS011;10438;51.454;6.718;2023-03-31T04:28:32;13.67;;;4.03;;
20559;SDS011;10438;51.454;6.718;2023-03-31T04:30:58;14.10;;;4.50;;
20559;SDS011;10438;51.454;6.718;2023-03-31T04:33:25;17.23;;;4.27;;
20559;SDS011;10438;51.454;6.718;2023-03-31T04:35:50;17.93;;;4.50;;
20559;SDS011;10438;51.454;6.718;2023-03-31T04:38:25;19.13;;;4.57;;
20559;SDS011;10438;51.454;6.718;2023-03-31T04:40:51;18.70;;;4.40;;
20559;SDS011;10438;51.454;6.718;2023-03-31T04:43:18;8.90;;;2.67;;
20559;SDS011;10438;51.454;6.718;2023-03-31T04:45:45;14.10;;;2.53;;
20559;SDS011;10438;51.454;6.718;2023-03-31T04:48:11;11.57;;;3.10;;
20559;SDS011;10438;51.454;6.718;2023-03-31T04:50:37;15.13;;;2.67;;
20559;SDS011;10438;51.454;6.718;2023-03-31T04:53:03;11.87;;;2.57;;
20559;SDS011;10438;51.454;6.718;2023-03-31T04:55:29;14.33;;;2.23;;
20559;SDS011;10438;51.454;6.718;2023-03-31T04:57:55;9.30;;;2.03;;
20559;SDS011;10438;51.454;6.718;2023-03-31T05:00:21;16.00;;;3.03;;
20559;SDS011;10438;51.454;6.718;2023-03-31T05:02:46;16.53;;;3.30;;
20559;SDS011;10438;51.454;6.718;2023-03-31T05:05:12;10.00;;;2.80;;
20559;SDS011;10438;51.454;6.718;2023-03-31T05:07:38;14.37;;;2.53;;
20559;SDS011;10438;51.454;6.718;2023-03-31T05:10:04;13.70;;;2.63;;
20559;SDS011;10438;51.454;6.718;2023-03-31T05:12:33;9.10;;;2.60;;
20559;SDS011;10438;51.454;6.718;2023-03-31T05:14:59;13.37;;;2.30;;
20559;SDS011;10438;51.454;6.718;2023-03-31T05:17:25;13.63;;;2.20;;
20559;SDS011;10438;51.454;6.718;2023-03-31T05:19:51;8.77;;;2.50;;
20559;SDS011;10438;51.454;6.718;2023-03-31T05:22:17;11.80;;;2.40;;
20559;SDS011;10438;51.454;6.718;2023-03-31T05:24:44;11.30;;;2.10;;
20559;SDS011;10438;51.454;6.718;2023-03-31T05:27:10;12.97;;;2.37;;
20559;SDS011;10438;51.454;6.718;2023-03-31T05:29:36;12.63;;;2.53;;
20559;SDS011;10438;51.454;6.718;2023-03-31T05:32:02;7.97;;;2.00;;
20559;SDS011;10438;51.454;6.718;2023-03-31T05:34:27;12.20;;;2.30;;
20559;SDS011;10438;51.454;6.718;2023-03-31T05:36:53;9.10;;;1.93;;
20559;SDS011;10438;51.454;6.718;2023-03-31T05:39:19;10.20;;;2.57;;
20559;SDS011;10438;51.454;6.718;2023-03-31T05:41:45;8.77;;;2.20;;
20559;SDS011;10438;51.454;6.718;2023-03-31T05:44:10;10.17;;;2.20;;
20559;SDS011;10438;51.454;6.718;2023-03-31T05:46:36;10.87;;;2.10;;
20559;SDS011;10438;51.454;6.718;2023-03-31T05:49:02;7.97;;;1.90;;
20559;SDS011;10438;51.454;6.718;2023-03-31T05:51:27;12.33;;;1.97;;
20559;SDS011;10438;51.454;6.718;2023-03-31T05:53:53;11.67;;;2.43;;
20559;SDS011;10438;51.454;6.718;2023-03-31T05:56:18;10.80;;;2.00;;
20559;SDS011;10438;51.454;6.718;2023-03-31T05:58:44;12.07;;;2.07;;
20559;SDS011;10438;51.454;6.718;2023-03-31T06:01:11;9.07;;;2.10;;
20559;SDS011;10438;51.454;6.718;2023-03-31T06:03:38;9.33;;;2.27;;
20559;SDS011;10438;51.454;6.718;2023-03-31T06:06:06;13.27;;;3.23;;
20559;SDS011;10438;51.454;6.718;2023-03-31T06:08:32;12.13;;;3.13;;
20559;SDS011;10438;51.454;6.718;2023-03-31T06:10:59;11.40;;;3.40;;
20559;SDS011;10438;51.454;6.718;2023-03-31T06:13:27;9.47;;;3.43;;
20559;SDS011;10438;51.454;6.718;2023-03-31T06:15:57;10.83;;;3.67;;
20559;SDS011;10438;51.454;6.718;2023-03-31T06:18:23;10.97;;;3.23;;
20559;SDS011;10438;51.454;6.718;2023-03-31T06:20:52;9.20;;;3.37;;
20559;SDS011;10438;51.454;6.718;2023-03-31T06:23:18;7.77;;;2.57;;
20559;SDS011;10438;51.454;6.718;2023-03-31T06:25:44;8.83;;;3.07;;
20559;SDS011;10438;51.454;6.718;2023-03-31T06:28:10;13.17;;;2.77;;
20559;SDS011;10438;51.454;6.718;2023-03-31T06:30:36;11.17;;;2.80;;
20559;SDS011;10438;51.454;6.718;2023-03-31T06:33:02;9.67;;;2.67;;
20559;SDS011;10438;51.454;6.718;2023-03-31T06:35:28;10.23;;;2.47;;
20559;SDS011;10438;51.454;6.718;2023-03-31T06:37:53;7.47;;;2.00;;
20559;SDS011;10438;51.454;6.718;2023-03-31T06:40:19;9.23;;;2.57;;
20559;SDS011;10438;51.454;6.718;2023-03-31T06:42:44;9.03;;;3.03;;
20559;SDS011;10438;51.454;6.718;2023-03-31T06:45:10;12.30;;;3.63;;
20559;SDS011;10438;51.454;6.718;2023-03-31T06:47:35;10.60;;;3.80;;
20559;SDS011;10438;51.454;6.718;2023-03-31T06:50:05;12.83;;;3.20;;
20559;SDS011;10438;51.454;6.718;2023-03-31T06:52:32;11.13;;;2.60;;
20559;SDS011;10438;51.454;6.718;2023-03-31T06:54:58;11.87;;;2.77;;
20559;SDS011;10438;51.454;6.718;2023-03-31T06:57:24;8.43;;;2.83;;
20559;SDS011;10438;51.454;6.718;2023-03-31T06:59:53;9.63;;;2.20;;
20559;SDS011;10438;51.454;6.718;2023-03-31T07:02:18;12.47;;;2.23;;
20559;SDS011;10438;51.454;6.718;2023-03-31T07:04:44;7.10;;;1.57;;
20559;SDS011;10438;51.454;6.718;2023-03-31T07:07:10;8.17;;;1.80;;
20559;SDS011;10438;51.454;6.718;2023-03-31T07:09:35;10.50;;;2.33;;
20559;SDS011;10438;51.454;6.718;2023-03-31T07:12:01;8.33;;;2.10;;
20559;SDS011;10438;51.454;6.718;2023-03-31T07:14:30;8.80;;;1.83;;
20559;SDS011;10438;51.454;6.718;2023-03-31T07:16:56;9.47;;;2.07;;
20559;SDS011;10438;51.454;6.718;2023-03-31T07:19:22;11.50;;;1.83;;
20559;SDS011;10438;51.454;6.718;2023-03-31T07:21:47;10.17;;;1.67;;
20559;SDS011;10438;51.454;6.718;2023-03-31T07:24:13;6.00;;;2.00;;
20559;SDS011;10438;51.454;6.718;2023-03-31T07:26:39;12.10;;;2.20;;
20559;SDS011;10438;51.454;6.718;2023-03-31T07:29:05;8.87;;;2.10;;
20559;SDS011;10438;51.454;6.718;2023-03-31T07:31:31;6.57;;;2.10;;
20559;SDS011;10438;51.454;6.718;2023-03-31T07:33:56;7.40;;;2.20;;
20559;SDS011;10438;51.454;6.718;2023-03-31T07:36:22;14.00;;;2.53;;
20559;SDS011;10438;51.454;6.718;2023-03-31T07:38:48;8.40;;;2.00;;
20559;SDS011;10438;51.454;6.718;2023-03-31T07:41:14;8.83;;;2.00;;
20559;SDS011;10438;51.454;6.718;2023-03-31T07:43:43;8.43;;;1.97;;
20559;SDS011;10438;51.454;6.718;2023-03-31T07:46:16;15.17;;;2.27;;
20559;SDS011;10438;51.454;6.718;2023-03-31T07:48:43;8.73;;;2.20;;
20559;SDS011;10438;51.454;6.718;2023-03-31T07:51:10;7.33;;;2.30;;
20559;SDS011;10438;51.454;6.718;2023-03-31T07:53:37;10.70;;;2.50;;
20559;SDS011;10438;51.454;6.718;2023-03-31T07:56:02;6.77;;;2.00;;
20559;SDS011;10438;51.454;6.718;2023-03-31T07:58:28;10.47;;;1.90;;
20559;SDS011;10438;51.454;6.718;2023-03-31T08:00:53;11.13;;;2.00;;
20559;SDS011;10438;51.454;6.718;2023-03-31T08:03:19;8.40;;;1.80;;
20559;SDS011;10438;51.454;6.718;2023-03-31T08:05:45;8.90;;;2.30;;
20559;SDS011;10438;51.454;6.718;2023-03-31T08:08:10;12.57;;;2.17;;
20559;SDS011;10438;51.454;6.718;2023-03-31T08:10:36;13.77;;;2.00;;
20559;SDS011;10438;51.454;6.718;2023-03-31T08:13:01;6.33;;;1.57;;
20559;SDS011;10438;51.454;6.718;2023-03-31T08:15:27;5.93;;;1.50;;
20559;SDS011;10438;51.454;6.718;2023-03-31T08:17:52;8.73;;;2.00;;
20559;SDS011;10438;51.454;6.718;2023-03-31T08:20:18;6.37;;;1.50;;
20559;SDS011;10438;51.454;6.718;2023-03-31T08:22:43;14.63;;;2.60;;
20559;SDS011;10438;51.454;6.718;2023-03-31T08:25:10;7.90;;;1.67;;
20559;SDS011;10438;51.454;6.718;2023-03-31T08:27:36;9.87;;;2.30;;
20559;SDS011;10438;51.454;6.718;2023-03-31T08:30:04;12.43;;;2.17;;
20559;SDS011;10438;51.454;6.718;2023-03-31T08:32:31;9.63;;;2.43;;
20559;SDS011;10438;51.454;6.718;2023-03-31T08:34:57;10.37;;;2.40;;
20559;SDS011;10438;51.454;6.718;2023-03-31T08:37:23;11.37;;;2.37;;
20559;SDS011;10438;51.454;6.718;2023-03-31T08:39:48;8.40;;;2.33;;
20559;SDS011;10438;51.454;6.718;2023-03-31T08:42:15;12.43;;;2.20;;
20559;SDS011;10438;51.454;6.718;2023-03-31T08:44:50;16.30;;;2.97;;
20559;SDS011;10438;51.454;6.718;2023-03-31T08:47:23;12.20;;;2.17;;
20559;SDS011;10438;51.454;6.718;2023-03-31T08:49:55;8.33;;;2.30;;
20559;SDS011;10438;51.454;6.718;2023-03-31T08:52:29;11.23;;;2.37;;
20559;SDS011;10438;51.454;6.718;2023-03-31T08:54:59;13.30;;;2.60;;
20559;SDS011;10438;51.454;6.718;2023-03-31T09:00:45;12.30;;;2.67;;
20559;SDS011;10438;51.454;6.718;2023-03-31T09:03:24;27.53;;;4.57;;
20559;SDS011;10438;51.454;6.718;2023-03-31T09:06:02;26.03;;;3.53;;
20559;SDS011;10438;51.454;6.718;2023-03-31T09:11:09;20.23;;;4.80;;
20559;SDS011;10438;51.454;6.718;2023-03-31T09:16:30;33.10;;;6.23;;
20559;SDS011;10438;51.454;6.718;2023-03-31T09:19:01;21.80;;;4.40;;
20559;SDS011;10438;51.454;6.718;2023-03-31T09:21:39;19.23;;;3.97;;
20559;SDS011;10438;51.454;6.718;2023-03-31T09:24:18;17.23;;;3.00;;
20559;SDS011;10438;51.454;6.718;2023-03-31T09:26:57;29.27;;;3.90;;
20559;SDS011;10438;51.454;6.718;2023-03-31T09:29:36;20.50;;;3.50;;
20559;SDS011;10438;51.454;6.718;2023-03-31T09:35:13;18.30;;;3.20;;
20559;SDS011;10438;51.454;6.718;2023-03-31T09:37:39;19.13;;;3.17;;
20559;SDS011;10438;51.454;6.718;2023-03-31T09:40:06;15.23;;;3.23;;
20559;SDS011;10438;51.454;6.718;2023-03-31T09:42:34;14.83;;;3.73;;
20559;SDS011;10438;51.454;6.718;2023-03-31T09:45:01;15.43;;;2.73;;
20559;SDS011;10438;51.454;6.718;2023-03-31T09:47:38;15.33;;;3.33;;
20559;SDS011;10438;51.454;6.718;2023-03-31T09:50:09;18.07;;;3.60;;
20559;SDS011;10438;51.454;6.718;2023-03-31T09:52:39;23.93;;;4.00;;
20559;SDS011;10438;51.454;6.718;2023-03-31T09:55:17;20.77;;;3.67;;
20559;SDS011;10438;51.454;6.718;2023-03-31T09:57:50;55.17;;;5.30;;
20559;SDS011;10438;51.454;6.718;2023-03-31T10:00:18;41.63;;;5.47;;
20559;SDS011;10438;51.454;6.718;2023-03-31T10:02:55;32.33;;;5.00;;
20559;SDS011;10438;51.454;6.718;2023-03-31T10:05:29;25.20;;;3.57;;
20559;SDS011;10438;51.454;6.718;2023-03-31T10:10:56;17.90;;;2.40;;
20559;SDS011;10438;51.454;6.718;2023-03-31T10:13:29;16.73;;;2.63;;
20559;SDS011;10438;51.454;6.718;2023-03-31T10:16:26;19.13;;;2.53;;
20559;SDS011;10438;51.454;6.718;2023-03-31T10:18:55;14.37;;;2.70;;
20559;SDS011;10438;51.454;6.718;2023-03-31T10:21:44;13.00;;;2.70;;
20559;SDS011;10438;51.454;6.718;2023-03-31T10:24:15;19.70;;;2.87;;
20559;SDS011;10438;51.454;6.718;2023-03-31T10:26:42;22.27;;;3.43;;
20559;SDS011;10438;51.454;6.718;2023-03-31T10:29:12;14.53;;;2.33;;
20559;SDS011;10438;51.454;6.718;2023-03-31T10:31:42;14.47;;;2.20;;
20559;SDS011;10438;51.454;6.718;2023-03-31T10:34:08;12.43;;;2.67;;
20559;SDS011;10438;51.454;6.718;2023-03-31T10:36:43;14.17;;;2.33;;
20559;SDS011;10438;51.454;6.718;2023-03-31T10:39:11;18.10;;;2.60;;
20559;SDS011;10438;51.454;6.718;2023-03-31T10:41:41;15.33;;;2.80;;
20559;SDS011;10438;51.454;6.718;2023-03-31T10:44:22;17.97;;;2.87;;
20559;SDS011;10438;51.454;6.718;2023-03-31T10:47:20;15.60;;;2.77;;
20559;SDS011;10438;51.454;6.718;2023-03-31T10:49:47;15.60;;;2.50;;
20559;SDS011;10438;51.454;6.718;2023-03-31T10:52:20;13.87;;;2.63;;
20559;SDS011;10438;51.454;6.718;2023-03-31T10:54:48;14.03;;;3.70;;
20559;SDS011;10438;51.454;6.718;2023-03-31T10:57:19;13.67;;;2.13;;
20559;SDS011;10438;51.454;6.718;2023-03-31T11:00:12;16.53;;;2.27;;
20559;SDS011;10438;51.454;6.718;2023-03-31T11:03:14;11.97;;;1.90;;
20559;SDS011;10438;51.454;6.718;2023-03-31T11:06:05;9.23;;;1.43;;
20559;SDS011;10438;51.454;6.718;2023-03-31T11:08:42;8.53;;;1.60;;
20559;SDS011;10438;51.454;6.718;2023-03-31T11:13:54;7.77;;;1.63;;
20559;SDS011;10438;51.454;6.718;2023-03-31T11:22:04;6.07;;;1.53;;
20559;SDS011;10438;51.454;6.718;2023-03-31T11:30:31;7.33;;;1.47;;
20559;SDS011;10438;51.454;6.718;2023-03-31T11:38:43;5.73;;;0.87;;
20559;SDS011;10438;51.454;6.718;2023-03-31T11:41:20;7.00;;;1.33;;
20559;SDS011;10438;51.454;6.718;2023-03-31T11:43:53;10.70;;;1.47;;
20559;SDS011;10438;51.454;6.718;2023-03-31T11:49:16;9.53;;;1.27;;
20559;SDS011;10438;51.454;6.718;2023-03-31T11:52:07;8.23;;;1.63;;
20559;SDS011;10438;51.454;6.718;2023-03-31T11:54:50;12.13;;;1.63;;
20559;SDS011;10438;51.454;6.718;2023-03-31T12:00:28;9.73;;;1.70;;
20559;SDS011;10438;51.454;6.718;2023-03-31T12:05:34;8.50;;;1.87;;
20559;SDS011;10438;51.454;6.718;2023-03-31T12:08:06;10.87;;;2.23;;
20559;SDS011;10438;51.454;6.718;2023-03-31T12:16:04;10.33;;;1.90;;
20559;SDS011;10438;51.454;6.718;2023-03-31T12:18:41;8.93;;;1.87;;
20559;SDS011;10438;51.454;6.718;2023-03-31T12:21:13;9.20;;;1.90;;
20559;SDS011;10438;51.454;6.718;2023-03-31T12:23:42;11.03;;;1.70;;
20559;SDS011;10438;51.454;6.718;2023-03-31T12:26:13;8.20;;;1.60;;
20559;SDS011;10438;51.454;6.718;2023-03-31T12:28:42;12.87;;;2.30;;
20559;SDS011;10438;51.454;6.718;2023-03-31T12:31:10;12.10;;;1.97;;
20559;SDS011;10438;51.454;6.718;2023-03-31T12:33:45;9.13;;;1.67;;
20559;SDS011;10438;51.454;6.718;2023-03-31T12:36:29;8.77;;;1.90;;
20559;SDS011;10438;51.454;6.718;2023-03-31T12:55:59;12.87;;;2.50;;
20559;SDS011;10438;51.454;6.718;2023-03-31T13:08:54;8.20;;;2.00;;
20559;SDS011;10438;51.454;6.718;2023-03-31T13:14:02;8.17;;;1.93;;
20559;SDS011;10438;51.454;6.718;2023-03-31T13:16:31;10.77;;;1.90;;
20559;SDS011;10438;51.454;6.718;2023-03-31T13:18:58;10.10;;;1.63;;
20559;SDS011;10438;51.454;6.718;2023-03-31T13:21:25;10.33;;;1.90;;
20559;SDS011;10438;51.454;6.718;2023-03-31T13:23:50;6.63;;;1.50;;
20559;SDS011;10438;51.454;6.718;2023-03-31T13:34:30;6.90;;;1.30;;
20559;SDS011;10438;51.454;6.718;2023-03-31T13:40:12;7.47;;;1.30;;
20559;SDS011;10438;51.454;6.718;2023-03-31T13:51:09;8.57;;;1.70;;
20559;SDS011;10438;51.454;6.718;2023-03-31T13:54:02;9.23;;;1.90;;
20559;SDS011;10438;51.454;6.718;2023-03-31T14:05:52;10.63;;;1.80;;
20559;SDS011;10438;51.454;6.718;2023-03-31T14:16:24;10.70;;;2.67;;
20559;SDS011;10438;51.454;6.718;2023-03-31T14:18:50;6.70;;;1.65;;
20559;SDS011;10438;51.454;6.718;2023-03-31T14:21:33;10.80;;;2.13;;
20559;SDS011;10438;51.454;6.718;2023-03-31T14:27:16;8.07;;;1.80;;
20559;SDS011;10438;51.454;6.718;2023-03-31T14:35:23;8.40;;;1.30;;
20559;SDS011;10438;51.454;6.718;2023-03-31T14:37:55;9.07;;;1.50;;
20559;SDS011;10438;51.454;6.718;2023-03-31T14:40:21;7.40;;;1.47;;
20559;SDS011;10438;51.454;6.718;2023-03-31T14:42:48;8.73;;;1.20;;
20559;SDS011;10438;51.454;6.718;2023-03-31T14:45:15;10.20;;;1.83;;
20559;SDS011;10438;51.454;6.718;2023-03-31T14:47:52;13.10;;;2.23;;
20559;SDS011;10438;51.454;6.718;2023-03-31T14:50:18;9.33;;;1.63;;
20559;SDS011;10438;51.454;6.718;2023-03-31T14:52:46;9.67;;;1.60;;
20559;SDS011;10438;51.454;6.718;2023-03-31T14:55:13;15.17;;;2.17;;
20559;SDS011;10438;51.454;6.718;2023-03-31T14:57:40;9.33;;;1.70;;
20559;SDS011;10438;51.454;6.718;2023-03-31T15:00:10;10.13;;;1.40;;
20559;SDS011;10438;51.454;6.718;2023-03-31T15:02:40;7.03;;;1.60;;
20559;SDS011;10438;51.454;6.718;2023-03-31T15:05:08;9.17;;;1.90;;
20559;SDS011;10438;51.454;6.718;2023-03-31T15:07:44;10.07;;;1.70;;
20559;SDS011;10438;51.454;6.718;2023-03-31T15:10:11;15.57;;;2.23;;
20559;SDS011;10438;51.454;6.718;2023-03-31T15:12:44;10.10;;;1.97;;
20559;SDS011;10438;51.454;6.718;2023-03-31T15:15:11;9.83;;;1.90;;
20559;SDS011;10438;51.454;6.718;2023-03-31T15:17:39;11.57;;;1.93;;
20559;SDS011;10438;51.454;6.718;2023-03-31T15:23:17;8.43;;;1.70;;
20559;SDS011;10438;51.454;6.718;2023-03-31T15:25:48;7.03;;;1.60;;
20559;SDS011;10438;51.454;6.718;2023-03-31T15:28:28;11.70;;;2.00;;
20559;SDS011;10438;51.454;6.718;2023-03-31T15:31:01;10.73;;;2.10;;
20559;SDS011;10438;51.454;6.718;2023-03-31T15:33:32;7.07;;;1.50;;
20559;SDS011;10438;51.454;6.718;2023-03-31T15:36:00;8.47;;;1.83;;
20559;SDS011;10438;51.454;6.718;2023-03-31T15:38:27;8.00;;;1.30;;
20559;SDS011;10438;51.454;6.718;2023-03-31T15:40:55;4.80;;;0.97;;
20559;SDS011;10438;51.454;6.718;2023-03-31T15:43:32;6.83;;;1.40;;
20559;SDS011;10438;51.454;6.718;2023-03-31T15:46:10;5.10;;;1.03;;
20559;SDS011;10438;51.454;6.718;2023-03-31T15:48:51;7.20;;;1.30;;
20559;SDS011;10438;51.454;6.718;2023-03-31T15:51:23;3.03;;;1.00;;
20559;SDS011;10438;51.454;6.718;2023-03-31T15:53:49;7.80;;;1.30;;
20559;SDS011;10438;51.454;6.718;2023-03-31T15:56:33;8.10;;;1.23;;
20559;SDS011;10438;51.454;6.718;2023-03-31T15:59:26;8.67;;;1.23;;
20559;SDS011;10438;51.454;6.718;2023-03-31T16:01:53;4.93;;;1.30;;
20559;SDS011;10438;51.454;6.718;2023-03-31T16:04:20;7.60;;;1.77;;
20559;SDS011;10438;51.454;6.718;2023-03-31T16:06:59;7.67;;;1.53;;
20559;SDS011;10438;51.454;6.718;2023-03-31T16:09:45;4.27;;;0.90;;
20559;SDS011;10438;51.454;6.718;2023-03-31T16:12:19;5.60;;;1.07;;
20559;SDS011;10438;51.454;6.718;2023-03-31T16:14:57;5.83;;;0.80;;
20559;SDS011;10438;51.454;6.718;2023-03-31T16:17:39;6.87;;;1.23;;
20559;SDS011;10438;51.454;6.718;2023-03-31T16:22:53;6.23;;;1.13;;
20559;SDS011;10438;51.454;6.718;2023-03-31T16:25:23;8.30;;;1.10;;
20559;SDS011;10438;51.454;6.718;2023-03-31T16:27:55;4.40;;;0.90;;
20559;SDS011;10438;51.454;6.718;2023-03-31T16:33:19;4.47;;;1.00;;
20559;SDS011;10438;51.454;6.718;2023-03-31T16:35:50;4.77;;;0.90;;
20559;SDS011;10438;51.454;6.718;2023-03-31T16:38:18;3.53;;;0.93;;
20559;SDS011;10438;51.454;6.718;2023-03-31T16:40:46;4.47;;;0.90;;
20559;SDS011;10438;51.454;6.718;2023-03-31T16:43:29;5.93;;;1.20;;
20559;SDS011;10438;51.454;6.718;2023-03-31T16:45:56;4.80;;;1.03;;
20559;SDS011;10438;51.454;6.718;2023-03-31T16:48:24;3.83;;;1.00;;
20559;SDS011;10438;51.454;6.718;2023-03-31T16:50:51;4.87;;;1.23;;
20559;SDS011;10438;51.454;6.718;2023-03-31T16:53:19;7.87;;;1.30;;
20559;SDS011;10438;51.454;6.718;2023-03-31T16:55:46;9.03;;;1.53;;
20559;SDS011;10438;51.454;6.718;2023-03-31T16:58:13;8.40;;;1.60;;
20559;SDS011;10438;51.454;6.718;2023-03-31T17:00:39;4.83;;;1.30;;
20559;SDS011;10438;51.454;6.718;2023-03-31T17:03:05;7.23;;;1.33;;
20559;SDS011;10438;51.454;6.718;2023-03-31T17:05:36;5.83;;;1.60;;
20559;SDS011;10438;51.454;6.718;2023-03-31T17:08:03;4.70;;;1.33;;
20559;SDS011;10438;51.454;6.718;2023-03-31T17:10:29;9.43;;;1.97;;
20559;SDS011;10438;51.454;6.718;2023-03-31T17:12:54;7.23;;;1.40;;
20559;SDS011;10438;51.454;6.718;2023-03-31T17:15:20;5.07;;;1.10;;
20559;SDS011;10438;51.454;6.718;2023-03-31T17:17:46;5.03;;;1.30;;
20559;SDS011;10438;51.454;6.718;2023-03-31T17:20:12;7.87;;;1.83;;
20559;SDS011;10438;51.454;6.718;2023-03-31T17:22:37;4.30;;;1.30;;
20559;SDS011;10438;51.454;6.718;2023-03-31T17:25:03;6.47;;;1.33;;
20559;SDS011;10438;51.454;6.718;2023-03-31T17:27:29;6.90;;;1.20;;
20559;SDS011;10438;51.454;6.718;2023-03-31T17:29:56;9.63;;;1.83;;
20559;SDS011;10438;51.454;6.718;2023-03-31T17:32:21;8.20;;;1.50;;
20559;SDS011;10438;51.454;6.718;2023-03-31T17:34:47;4.70;;;1.47;;
20559;SDS011;10438;51.454;6.718;2023-03-31T17:37:16;5.60;;;1.50;;
20559;SDS011;10438;51.454;6.718;2023-03-31T17:39:43;6.57;;;1.53;;